Time;durP1;ratioP1;P1;durP2;ratioP2;P2;SDS_P1;SDS_P2;PMS_P1;PMS_P2;Temp;Humidity;BMP_temperature;BMP_pressure;BME280_temperature;BME280_humidity;BME280_pressure;Samples;Min_cycle;Max_cycle;Signal;HPM_P1;HPM_P2
2021/04/04 00:01:00;;;;;;;4.80;2.50;;;;;;;0.56;66.85;99723.56;5094229;28;20048;-78
2021/04/04 00:03:26;;;;;;;9.00;2.90;;;;;;;0.51;67.31;99720.34;5093447;28;20047;-78
2021/04/04 00:05:52;;;;;;;3.20;2.37;;;;;;;0.65;67.44;99719.38;5091215;28;20051;-78
2021/04/04 00:08:19;;;;;;;6.93;2.47;;;;;;;0.53;67.42;99727.28;5091184;28;20078;-78
2021/04/04 00:10:46;;;;;;;8.10;2.40;;;;;;;0.56;67.98;99730.72;5088258;28;20055;-78
2021/04/04 00:13:13;;;;;;;8.93;3.00;;;;;;;0.40;68.28;99725.59;5093353;28;20044;-78
2021/04/04 00:15:40;;;;;;;5.67;3.00;;;;;;;0.52;68.46;99730.94;5093441;28;20043;-78
2021/04/04 00:18:09;;;;;;;3.27;2.60;;;;;;;0.41;69.07;99721.97;5093924;28;20082;-78
2021/04/04 00:20:35;;;;;;;4.40;2.10;;;;;;;0.25;69.78;99725.66;5093438;28;20052;-78
2021/04/04 00:23:03;;;;;;;6.27;3.00;;;;;;;0.14;70.06;99729.09;5093506;28;20048;-78
2021/04/04 00:25:32;;;;;;;5.67;2.20;;;;;;;0.04;69.90;99732.50;5093525;28;20047;-78
2021/04/04 00:27:59;;;;;;;3.72;2.47;;;;;;;0.09;69.82;99727.69;5093750;28;20415;-78
2021/04/04 00:30:26;;;;;;;8.57;3.13;;;;;;;-0.08;70.40;99732.34;5093086;28;20044;-78
2021/04/04 00:32:52;;;;;;;10.30;3.03;;;;;;;0.00;70.33;99726.50;5093577;28;20048;-78
2021/04/04 00:35:20;;;;;;;4.63;2.47;;;;;;;0.05;70.02;99731.53;5093231;28;20047;-78
2021/04/04 00:37:49;;;;;;;3.70;2.47;;;;;;;0.04;69.69;99729.81;5093321;28;20048;-78
2021/04/04 00:40:17;;;;;;;3.53;2.67;;;;;;;0.09;70.12;99725.88;5092270;28;20101;-78
2021/04/04 00:42:45;;;;;;;5.90;2.70;;;;;;;0.03;70.35;99718.28;5092522;28;20056;-78
2021/04/04 00:45:17;;;;;;;5.60;2.17;;;;;;;0.17;69.41;99720.84;5093372;28;20055;-78
2021/04/04 00:47:45;;;;;;;9.17;2.57;;;;;;;0.15;69.30;99724.56;5092733;28;20052;-78
2021/04/04 00:50:13;;;;;;;6.53;2.73;;;;;;;0.02;69.37;99719.22;5093095;28;20093;-78
2021/04/04 00:52:40;;;;;;;8.25;2.65;;;;;;;-0.16;70.12;99715.13;5092854;28;20048;-78
2021/04/04 00:55:08;;;;;;;4.30;2.10;;;;;;;-0.13;69.83;99721.13;5093088;28;20048;-77
2021/04/04 00:57:35;;;;;;;6.23;2.90;;;;;;;-0.23;70.55;99709.31;5093169;28;20047;-78
2021/04/04 01:00:07;;;;;;;4.70;2.50;;;;;;;-0.35;71.14;99713.66;5092723;28;20040;-78
2021/04/04 01:02:33;;;;;;;18.93;2.93;;;;;;;-0.31;71.07;99712.50;5093092;28;20492;-78
2021/04/04 01:05:01;;;;;;;7.87;2.73;;;;;;;-0.35;71.11;99713.66;5094313;28;20059;-78
2021/04/04 01:07:28;;;;;;;4.37;2.40;;;;;;;-0.39;70.93;99705.00;5091066;28;20070;-78
2021/04/04 01:09:55;;;;;;;4.67;2.40;;;;;;;-0.34;71.08;99709.19;5092132;28;20500;-78
2021/04/04 01:12:28;;;;;;;6.13;2.47;;;;;;;-0.22;71.37;99709.22;5092750;28;20040;-78
2021/04/04 01:15:00;;;;;;;7.13;2.40;;;;;;;-0.39;71.55;99698.81;5092902;28;20097;-78
2021/04/04 01:17:31;;;;;;;6.53;2.67;;;;;;;-0.32;70.88;99705.44;5092331;28;20055;-78
2021/04/04 01:20:09;;;;;;;7.13;3.00;;;;;;;-0.30;70.40;99708.91;5097063;28;20044;-78
2021/04/04 01:22:54;;;;;;;6.53;2.73;;;;;;;-0.25;70.34;99717.44;5096985;28;20048;-78
2021/04/04 01:25:26;;;;;;;5.27;2.13;;;;;;;-0.48;70.85;99713.63;5096722;28;20093;-77
2021/04/04 01:27:58;;;;;;;7.10;2.60;;;;;;;-0.51;71.36;99720.97;5096890;28;20048;-78
2021/04/04 01:30:29;;;;;;;3.77;1.90;;;;;;;-0.64;72.35;99719.13;5096912;28;20400;-77
2021/04/04 01:32:57;;;;;;;3.20;2.40;;;;;;;-0.66;72.05;99721.03;5105752;28;20051;-78
2021/04/04 01:35:26;;;;;;;5.17;2.60;;;;;;;-0.56;71.95;99718.63;5107274;28;20048;-77
2021/04/04 01:37:55;;;;;;;5.00;2.53;;;;;;;-0.56;71.84;99722.16;5096479;28;20446;-78
2021/04/04 01:40:24;;;;;;;6.13;2.57;;;;;;;-0.60;71.86;99719.78;5095875;28;20048;-78
2021/04/04 01:42:53;;;;;;;7.70;3.00;;;;;;;-0.56;71.94;99715.94;5075508;28;20048;-78
2021/04/04 01:45:22;;;;;;;6.47;2.80;;;;;;;-0.56;71.89;99715.94;5100972;28;20047;-78
2021/04/04 01:47:49;;;;;;;8.00;3.07;;;;;;;-0.63;72.22;99711.94;5096901;28;20048;-78
2021/04/04 01:50:15;;;;;;;7.90;2.50;;;;;;;-0.80;72.72;99710.38;5096973;28;20381;-78
2021/04/04 01:52:42;;;;;;;2.50;2.00;;;;;;;-0.85;73.03;99709.84;5095529;28;20054;-78
2021/04/04 01:55:10;;;;;;;6.73;2.00;;;;;;;-0.84;73.22;99709.75;5096278;28;20040;-78
2021/04/04 01:57:38;;;;;;;6.87;2.87;;;;;;;-0.90;73.16;99694.97;5096317;28;20052;-78
2021/04/04 02:00:10;;;;;;;5.50;2.43;;;;;;;-0.76;72.64;99707.41;5095903;28;20048;-78
2021/04/04 02:02:38;;;;;;;8.97;2.80;;;;;;;-0.80;72.30;99689.03;5102084;28;20073;-78
2021/04/04 02:05:07;;;;;;;6.93;2.83;;;;;;;-0.81;71.10;99672.16;5116576;28;20399;-78
2021/04/04 02:07:34;;;;;;;8.13;2.60;;;;;;;-0.81;72.10;99687.31;5107765;28;20105;-78
2021/04/04 02:10:01;;;;;;;5.17;2.43;;;;;;;-0.86;71.50;99689.44;5095532;28;20073;-78
2021/04/04 02:12:29;;;;;;;2.47;1.93;;;;;;;-1.08;72.80;99694.34;5095801;28;20142;-78
2021/04/04 02:14:57;;;;;;;8.10;2.47;;;;;;;-1.11;72.19;99693.69;5061247;28;20127;-78
2021/04/04 02:17:24;;;;;;;4.20;1.97;;;;;;;-1.19;72.99;99693.28;5095769;28;20133;-78
2021/04/04 02:20:11;;;;;;;3.50;2.13;;;;;;;-1.16;72.70;99688.63;5096235;28;20164;-78
2021/04/04 02:22:38;;;;;;;4.20;2.07;;;;;;;-1.23;72.96;99697.97;5075406;28;20052;-78
2021/04/04 02:25:06;;;;;;;5.93;2.90;;;;;;;-1.18;73.02;99695.03;5075582;28;20056;-78
2021/04/04 02:27:32;;;;;;;3.67;2.60;;;;;;;-1.14;73.14;99683.22;5075626;28;20056;-78
2021/04/04 02:29:59;;;;;;;6.10;2.73;;;;;;;-1.05;73.39;99690.63;5079196;28;20434;-78
2021/04/04 02:32:28;;;;;;;7.03;2.30;;;;;;;-1.00;72.13;99680.50;5094968;28;20055;-77
2021/04/04 02:34:59;;;;;;;3.43;2.50;;;;;;;-0.94;72.26;99681.91;5102612;28;20048;-77
2021/04/04 02:37:27;;;;;;;5.60;2.63;;;;;;;-1.08;72.06;99661.47;5114464;28;20595;-77
2021/04/04 02:40:02;;;;;;;4.73;2.50;;;;;;;-0.90;72.54;99688.78;5094579;28;20048;-77
2021/04/04 02:42:32;;;;;;;6.23;2.43;;;;;;;-0.98;72.81;99688.41;5094083;28;20039;-77
2021/04/04 02:45:00;;;;;;;8.25;2.20;;;;;;;-0.92;72.00;99688.00;5093171;28;20665;-77
2021/04/04 02:47:32;;;;;;;7.07;2.57;;;;;;;-1.14;72.80;99692.06;5094866;28;20059;-77
2021/04/04 02:49:59;;;;;;;7.60;2.60;;;;;;;-1.16;72.58;99696.66;5094111;28;20094;-77
2021/04/04 02:52:28;;;;;;;11.50;2.83;;;;;;;-1.27;73.26;99685.78;5092734;28;20500;-77
2021/04/04 02:54:57;;;;;;;3.83;2.20;;;;;;;-1.16;72.67;99696.66;5092881;28;20109;-77
2021/04/04 02:57:30;;;;;;;7.10;2.70;;;;;;;-1.32;73.62;99678.06;5093115;28;20492;-78
2021/04/04 03:00:00;;;;;;;3.80;2.27;;;;;;;-1.09;72.92;99692.59;5093470;28;20048;-77
2021/04/04 03:02:28;;;;;;;8.60;3.00;;;;;;;-1.12;72.84;99687.47;5094430;28;20044;-77
2021/04/04 03:04:56;;;;;;;3.90;2.80;;;;;;;-1.10;72.80;99687.38;5093616;28;20102;-77
2021/04/04 03:07:25;;;;;;;6.60;2.10;;;;;;;-1.15;72.74;99692.16;5091165;28;20055;-77
2021/04/04 03:09:54;;;;;;;7.93;2.50;;;;;;;-1.30;72.89;99689.50;5093931;28;20063;-77
2021/04/04 03:12:23;;;;;;;5.53;2.20;;;;;;;-1.30;72.35;99692.16;5093414;28;20400;-77
2021/04/04 03:15:15;;;;;;;4.93;2.43;;;;;;;-1.47;73.49;99695.88;5084250;28;20045;-77
2021/04/04 03:18:02;;;;;;;3.90;2.40;;;;;;;-1.46;72.31;99686.94;5080531;28;21512;-77
2021/04/04 03:20:31;;;;;;;6.67;2.67;;;;;;;-1.47;73.50;99703.03;5089434;28;20157;-76
2021/04/04 03:22:59;;;;;;;6.20;2.38;;;;;;;-1.37;71.88;99698.84;5092040;28;20048;-77
2021/04/04 03:25:28;;;;;;;5.53;2.60;;;;;;;-1.53;73.56;99688.28;5090779;28;20043;-78
2021/04/04 03:27:56;;;;;;;7.57;2.40;;;;;;;-1.51;73.63;99694.34;5089902;28;20538;-77
2021/04/04 03:30:36;;;;;;;5.63;2.83;;;;;;;-1.61;73.93;99694.09;5091703;28;20100;-78
2021/04/04 03:33:05;;;;;;;10.82;2.33;;;;;;;-1.55;74.02;99700.84;5094824;28;20488;-77
2021/04/04 03:35:33;;;;;;;8.60;2.72;;;;;;;-1.67;74.58;99699.78;5078680;28;20489;-78
2021/04/04 03:38:01;;;;;;;3.80;2.37;;;;;;;-1.66;74.43;99711.31;5091702;28;20040;-77
2021/04/04 03:40:29;;;;;;;8.30;2.60;;;;;;;-1.70;74.53;99707.09;5091670;28;20040;-77
2021/04/04 03:42:57;;;;;;;9.93;2.70;;;;;;;-1.65;74.50;99708.53;5081604;28;20504;-78
2021/04/04 03:45:25;;;;;;;3.80;2.33;;;;;;;-1.68;75.57;99706.06;5090979;28;20040;-77
2021/04/04 03:47:52;;;;;;;4.13;2.23;;;;;;;-1.64;76.35;99691.59;5112522;28;20047;-77
2021/04/04 03:50:19;;;;;;;5.60;2.30;;;;;;;-1.61;75.19;99703.91;5113063;28;20047;-77
2021/04/04 03:52:46;;;;;;;8.50;3.07;;;;;;;-1.67;75.30;99706.91;5099654;28;20132;-78
2021/04/04 03:55:16;;;;;;;9.97;2.73;;;;;;;-1.68;75.18;99700.72;5092862;28;20480;-77
2021/04/04 03:57:45;;;;;;;6.03;2.55;;;;;;;-1.70;75.01;99702.66;5093841;28;20055;-78
2021/04/04 04:00:13;;;;;;;3.50;2.80;;;;;;;-1.84;75.11;99698.13;5093507;28;20055;-78
2021/04/04 04:02:41;;;;;;;4.33;2.30;;;;;;;-1.76;75.55;99711.03;5093621;28;20303;-77
2021/04/04 04:05:09;;;;;;;6.10;2.53;;;;;;;-1.73;75.83;99699.28;5092804;28;20040;-77
2021/04/04 04:07:37;;;;;;;12.03;2.90;;;;;;;-1.80;74.83;99680.16;5093715;28;20044;-77
2021/04/04 04:10:05;;;;;;;4.73;2.53;;;;;;;-1.74;74.85;99698.44;5074715;28;20059;-78
2021/04/04 04:12:34;;;;;;;8.77;2.90;;;;;;;-1.73;74.75;99705.50;5086751;28;20052;-77
2021/04/04 04:15:02;;;;;;;6.67;2.77;;;;;;;-1.93;75.91;99690.69;5092600;28;20051;-77
2021/04/04 04:17:29;;;;;;;7.03;3.10;;;;;;;-1.82;75.21;99706.91;5093287;28;20052;-77
2021/04/04 04:19:57;;;;;;;3.93;2.30;;;;;;;-1.92;75.00;99692.44;5092788;28;20665;-78
2021/04/04 04:22:24;;;;;;;3.00;2.33;;;;;;;-1.86;74.78;99696.53;5091484;28;20350;-78
2021/04/04 04:24:51;;;;;;;9.37;2.90;;;;;;;-1.96;75.34;99702.41;5073315;28;20049;-77
2021/04/04 04:27:18;;;;;;;8.30;2.93;;;;;;;-1.89;75.28;99702.06;5073535;28;20135;-77
2021/04/04 04:29:46;;;;;;;5.33;2.80;;;;;;;-2.05;75.87;99700.28;5092984;28;20055;-78
2021/04/04 04:32:15;;;;;;;5.73;3.23;;;;;;;-1.90;75.19;99709.16;5093096;28;20044;-77
2021/04/04 04:34:43;;;;;;;4.67;2.23;;;;;;;-1.97;76.07;99694.53;5091695;28;20048;-78
2021/04/04 04:37:11;;;;;;;4.67;2.67;;;;;;;-1.91;75.13;99693.28;5092920;28;20397;-77
2021/04/04 04:39:39;;;;;;;7.07;2.97;;;;;;;-2.07;75.61;99702.19;5087365;28;20052;-77
2021/04/04 04:42:09;;;;;;;4.27;2.47;;;;;;;-2.10;75.00;99697.03;5093204;28;20043;-77
2021/04/04 04:44:37;;;;;;;8.57;2.47;;;;;;;-2.26;75.63;99691.75;5092119;28;20062;-78
2021/04/04 04:47:03;;;;;;;9.40;2.73;;;;;;;-2.19;75.83;99711.75;5093073;28;20554;-77
2021/04/04 04:49:32;;;;;;;5.13;2.87;;;;;;;-2.17;75.47;99693.03;5092756;28;20040;-77
2021/04/04 04:51:59;;;;;;;4.07;2.67;;;;;;;-2.15;74.27;99683.16;5092909;28;20094;-77
2021/04/04 04:54:25;;;;;;;6.23;3.53;;;;;;;-2.13;75.75;99703.41;5091645;28;20040;-78
2021/04/04 04:56:52;;;;;;;9.13;2.87;;;;;;;-2.10;75.13;99699.72;5092248;28;20048;-76
2021/04/04 04:59:19;;;;;;;7.70;2.57;;;;;;;-2.13;75.32;99698.06;5076226;28;20044;-78
2021/04/04 05:01:47;;;;;;;5.17;2.70;;;;;;;-2.08;74.98;99703.13;5089264;28;20058;-77
2021/04/04 05:04:14;;;;;;;5.70;2.37;;;;;;;-2.21;75.16;99691.50;5094722;28;20051;-77
2021/04/04 05:06:44;;;;;;;3.43;2.77;;;;;;;-2.18;75.49;99708.16;5093996;28;20059;-77
2021/04/04 05:09:10;;;;;;;;;;;;;;;-2.03;75.54;99705.53;5092854;28;20517;-77
2021/04/04 05:11:42;;;;;;;5.20;2.57;;;;;;;-2.02;75.22;99712.56;5090856;28;19920;-77
2021/04/04 05:14:10;;;;;;;11.00;2.70;;;;;;;-1.87;74.63;99711.66;5092076;28;20519;-77
2021/04/04 05:16:36;;;;;;;7.83;2.57;;;;;;;-2.00;74.76;99705.38;5092184;28;20127;-78
2021/04/04 05:19:06;;;;;;;7.83;2.63;;;;;;;-1.95;74.77;99713.94;5092649;28;20044;-77
2021/04/04 05:21:33;;;;;;;9.50;2.67;;;;;;;-1.96;75.08;99713.09;5092319;28;20044;-79
2021/04/04 05:24:03;;;;;;;4.17;2.73;;;;;;;-2.04;75.46;99715.31;5090846;28;20056;-78
2021/04/04 05:26:31;;;;;;;6.32;2.67;;;;;;;-1.97;75.16;99710.50;5091350;28;20051;-78
2021/04/04 05:29:01;;;;;;;3.40;2.67;;;;;;;-1.98;75.26;99698.97;5092203;28;20055;-78
2021/04/04 05:31:27;;;;;;;;;;;;;;;-1.97;75.56;99703.38;5092301;28;20726;-78
2021/04/04 05:33:53;;;;;;;5.63;2.80;;;;;;;-2.04;75.75;99682.50;5092560;28;19920;-78
2021/04/04 05:36:19;;;;;;;7.10;2.70;;;;;;;-1.90;76.47;99703.84;5091761;28;20076;-78
2021/04/04 05:38:46;;;;;;;4.47;2.97;;;;;;;-1.92;76.38;99683.59;5094655;28;20457;-79
2021/04/04 05:41:14;;;;;;;7.17;2.77;;;;;;;-1.71;76.44;99692.09;5092701;28;20059;-78
2021/04/04 05:43:42;;;;;;;5.93;3.07;;;;;;;-1.61;75.90;99701.22;5092580;28;20048;-78
2021/04/04 05:46:16;;;;;;;5.13;2.67;;;;;;;-1.62;75.74;99702.19;5091404;28;20083;-78
2021/04/04 05:48:56;;;;;;;5.90;2.37;;;;;;;-1.56;76.34;99707.13;5091998;28;20055;-78
2021/04/04 05:51:35;;;;;;;5.30;2.77;;;;;;;-1.35;75.54;99698.75;5092557;28;20052;-78
2021/04/04 05:54:17;;;;;;;3.63;2.30;;;;;;;-0.67;73.57;99694.44;5091652;28;20459;-78
2021/04/04 05:56:49;;;;;;;6.53;2.93;;;;;;;0.21;70.58;99700.13;5089776;28;20048;-79
2021/04/04 05:59:24;;;;;;;8.07;3.77;;;;;;;0.81;67.35;99689.69;5091901;28;20080;-77
2021/04/04 06:02:18;;;;;;;7.07;3.17;;;;;;;1.49;66.17;99690.13;5091718;28;20122;-79
2021/04/04 06:04:54;;;;;;;11.53;3.30;;;;;;;1.92;64.04;99676.19;5093194;28;20052;-79
2021/04/04 06:07:45;;;;;;;4.23;2.63;;;;;;;2.48;62.90;99679.00;5109550;28;20043;-79
2021/04/04 06:10:16;;;;;;;7.43;3.20;;;;;;;2.69;61.82;99667.50;5094391;28;20538;-79
2021/04/04 06:13:10;;;;;;;8.57;3.00;;;;;;;2.74;61.56;99672.50;5113866;28;20043;-78
2021/04/04 06:15:54;;;;;;;5.30;3.40;;;;;;;2.47;61.32;99671.06;5085167;28;20449;-79
2021/04/04 06:18:29;;;;;;;7.73;3.50;;;;;;;2.08;63.50;99687.44;5094932;28;20488;-79
2021/04/04 06:21:00;;;;;;;9.70;3.40;;;;;;;2.13;63.60;99676.38;5092923;28;20052;-78
2021/04/04 06:23:34;;;;;;;7.40;3.90;;;;;;;2.24;62.26;99675.53;5094696;28;20093;-78
2021/04/04 06:26:33;;;;;;;12.70;4.73;;;;;;;2.27;62.90;99677.97;5074857;28;20071;-78
2021/04/04 06:29:07;;;;;;;8.37;4.00;;;;;;;2.29;63.14;99681.41;5088399;28;20044;-78
2021/04/04 06:31:46;;;;;;;8.70;4.40;;;;;;;2.67;61.17;99655.22;5092874;28;20069;-78
2021/04/04 06:34:17;;;;;;;8.30;5.10;;;;;;;3.04;60.67;99679.09;5089778;28;20496;-78
2021/04/04 06:36:54;;;;;;;9.73;4.93;;;;;;;3.24;59.15;99664.03;5084188;28;20040;-79
2021/04/04 06:39:48;;;;;;;15.17;5.50;;;;;;;3.70;58.10;99661.09;5091824;28;20032;-78
2021/04/04 06:42:22;;;;;;;11.67;4.80;;;;;;;4.18;56.70;99657.03;5093120;28;20060;-79
2021/04/04 06:45:22;;;;;;;13.43;4.40;;;;;;;4.27;56.84;99673.38;5093575;28;20040;-78
2021/04/04 06:48:20;;;;;;;11.60;4.63;;;;;;;4.61;55.82;99674.00;5074830;28;20052;-78
2021/04/04 06:54:01;;;;;;;11.20;4.70;;;;;;;4.78;55.47;99686.00;5109042;28;20056;-76
2021/04/04 06:56:41;;;;;;;12.40;4.22;;;;;;;4.31;56.34;99672.16;5093528;28;20052;-78
2021/04/04 06:59:14;;;;;;;;;;;;;;;4.56;56.81;99685.19;5094032;28;20403;-77
2021/04/04 07:01:55;;;;;;;7.72;3.85;;;;;;;4.62;56.37;99686.47;5088569;28;20281;-77
2021/04/04 07:04:25;;;;;;;10.35;4.18;;;;;;;4.53;55.94;99684.59;5077099;28;20044;-77
2021/04/04 07:07:32;;;;;;;7.70;3.90;;;;;;;4.59;56.98;99690.31;5097697;28;20412;-77
2021/04/04 07:10:28;;;;;;;7.82;4.43;;;;;;;4.84;56.32;99692.69;5076271;28;20048;-79
2021/04/04 07:20:00;;;;;;;9.07;4.00;;;;;;;5.07;56.42;99685.25;5040369;28;20122;-78
2021/04/04 07:22:37;;;;;;;9.32;3.53;;;;;;;5.03;56.33;99684.69;5085400;28;20524;-78
2021/04/04 07:25:12;;;;;;;6.22;3.42;;;;;;;4.61;56.20;99682.09;5099900;28;20040;-80
2021/04/04 07:28:05;;;;;;;7.80;3.92;;;;;;;5.14;55.33;99681.84;5092621;28;20040;-77
2021/04/04 07:30:35;;;;;;;11.52;4.13;;;;;;;5.30;54.35;99680.50;5096558;28;20430;-77
2021/04/04 07:33:15;;;;;;;16.58;4.90;;;;;;;5.13;54.11;99685.56;5104600;28;20052;-78
2021/04/04 07:35:46;;;;;;;;;;;;;;;5.11;54.06;99684.00;5086389;28;20070;-78
2021/04/04 07:38:19;;;;;;;9.25;3.65;;;;;;;5.20;54.39;99687.72;5080054;28;19920;-78
2021/04/04 07:40:52;;;;;;;7.25;3.83;;;;;;;5.34;54.62;99673.81;5090859;28;20095;-79
2021/04/04 07:43:28;;;;;;;9.20;3.75;;;;;;;5.06;55.10;99683.53;5093488;28;20051;-79
2021/04/04 07:46:03;;;;;;;8.30;3.90;;;;;;;5.04;55.28;99675.59;5091745;28;20052;-78
2021/04/04 07:48:42;;;;;;;11.60;4.57;;;;;;;5.40;54.48;99683.22;5091995;28;20052;-79
2021/04/04 07:51:12;;;;;;;10.15;4.07;;;;;;;5.61;53.68;99686.63;5074888;28;20131;-78
2021/04/04 07:53:43;;;;;;;11.00;3.97;;;;;;;5.82;52.80;99682.97;5090320;28;20112;-78
2021/04/04 07:56:19;;;;;;;12.63;4.03;;;;;;;5.67;53.36;99675.31;5075654;28;20048;-78
2021/04/04 07:58:57;;;;;;;8.85;4.70;;;;;;;5.91;54.62;99674.03;5089552;28;20073;-80
2021/04/04 08:01:27;;;;;;;6.35;4.43;;;;;;;6.10;53.35;99673.19;5090953;28;20069;-77
2021/04/04 08:04:00;;;;;;;14.20;4.47;;;;;;;6.00;53.31;99658.84;5092118;28;20505;-78
2021/04/04 08:06:35;;;;;;;9.60;4.00;;;;;;;6.08;53.23;99661.69;5082687;28;20109;-77
2021/04/04 08:09:07;;;;;;;9.32;3.45;;;;;;;6.43;53.97;99667.44;5081744;28;20071;-78
2021/04/04 08:11:45;;;;;;;8.43;3.72;;;;;;;6.13;54.10;99672.91;5081164;28;20180;-77
2021/04/04 08:14:18;;;;;;;11.57;3.50;;;;;;;6.29;53.68;99658.81;5090356;28;20504;-78
2021/04/04 08:16:49;;;;;;;10.65;4.72;;;;;;;6.62;52.54;99669.25;5092068;28;20388;-78
2021/04/04 08:19:17;;;;;;;9.05;3.75;;;;;;;6.65;52.35;99667.09;5091011;28;20051;-78
2021/04/04 08:21:51;;;;;;;7.32;3.40;;;;;;;6.34;53.09;99671.88;5091143;28;20051;-78
2021/04/04 08:24:24;;;;;;;8.38;3.58;;;;;;;6.51;53.97;99652.22;5090085;28;20138;-78
2021/04/04 08:26:54;;;;;;;15.77;3.78;;;;;;;6.75;52.92;99660.81;5090481;28;20048;-78
2021/04/04 08:29:25;;;;;;;6.65;3.90;;;;;;;6.53;53.01;99666.44;5090471;28;20044;-78
2021/04/04 08:31:59;;;;;;;6.78;3.38;;;;;;;6.45;52.76;99665.47;5091992;28;20047;-78
2021/04/04 08:34:31;;;;;;;14.18;4.45;;;;;;;6.48;53.07;99667.88;5087818;28;20089;-79
2021/04/04 08:37:01;;;;;;;6.50;4.20;;;;;;;6.85;53.38;99667.88;5087018;28;20055;-78
2021/04/04 08:39:30;;;;;;;9.15;3.85;;;;;;;6.78;52.39;99666.78;5089279;28;20036;-78
2021/04/04 08:42:06;;;;;;;7.90;4.13;;;;;;;6.99;52.77;99665.69;5089954;28;20047;-77
2021/04/04 08:44:41;;;;;;;11.15;3.90;;;;;;;7.15;51.00;99667.72;5089523;28;20589;-78
2021/04/04 08:47:15;;;;;;;6.28;3.15;;;;;;;7.01;50.60;99661.81;5091509;28;20134;-78
2021/04/04 08:49:49;;;;;;;10.50;3.63;;;;;;;7.14;50.74;99666.06;5093341;28;20070;-77
2021/04/04 08:52:24;;;;;;;9.82;3.50;;;;;;;6.90;51.12;99675.56;5091433;28;20052;-78
2021/04/04 08:54:54;;;;;;;12.10;4.10;;;;;;;7.06;52.46;99667.66;5089931;28;20048;-78
2021/04/04 08:57:37;;;;;;;9.88;3.78;;;;;;;6.86;51.29;99642.53;5090053;28;20048;-78
2021/04/04 09:00:06;;;;;;;13.68;3.65;;;;;;;7.23;50.79;99663.28;5091191;28;20503;-79
2021/04/04 09:05:38;;;;;;;6.78;3.42;;;;;;;7.76;52.10;99652.69;5163820;22;20048;-80
2021/04/04 09:08:06;;;;;;;10.93;3.55;;;;;;;7.78;49.95;99654.22;5091652;28;20040;-78
2021/04/04 09:10:37;;;;;;;8.40;3.88;;;;;;;7.91;50.32;99652.97;5069928;28;20052;-78
2021/04/04 09:13:08;;;;;;;8.13;3.42;;;;;;;7.90;49.88;99638.59;5070201;28;20048;-79
2021/04/04 09:15:52;;;;;;;8.75;4.00;;;;;;;7.85;48.94;99638.19;5071319;28;20063;-80
2021/04/04 09:21:35;;;;;;;7.93;3.78;;;;;;;7.92;49.77;99638.44;5049400;28;20520;-80
2021/04/04 09:24:10;;;;;;;7.47;3.85;;;;;;;8.04;48.93;99645.31;5051904;28;20060;-79
2021/04/04 09:26:37;;;;;;;13.75;4.10;;;;;;;8.17;48.78;99644.88;5058987;28;20047;-77
2021/04/04 09:29:04;;;;;;;12.25;4.13;;;;;;;8.25;49.98;99630.56;5069762;28;20059;-77
2021/04/04 09:31:33;;;;;;;7.40;3.55;;;;;;;8.23;48.31;99627.16;5070091;28;20048;-78
2021/04/04 09:34:02;;;;;;;8.48;3.95;;;;;;;8.09;49.38;99617.75;5067432;28;20098;-78
2021/04/04 09:36:43;;;;;;;12.35;4.30;;;;;;;8.40;48.79;99638.94;5069481;28;20044;-78
2021/04/04 09:39:12;;;;;;;10.90;3.83;;;;;;;8.42;48.05;99634.25;5068970;28;20048;-78
2021/04/04 09:41:40;;;;;;;9.98;3.10;;;;;;;8.25;47.39;99636.84;5071652;28;20551;-78
2021/04/04 09:44:08;;;;;;;11.52;3.08;;;;;;;8.45;48.95;99637.50;5073037;28;20049;-78
2021/04/04 09:46:52;;;;;;;8.05;3.53;;;;;;;8.67;48.60;99617.16;5070456;28;20045;-78
2021/04/04 09:49:41;;;;;;;7.47;2.90;;;;;;;8.75;46.92;99612.78;5056981;28;20053;-79
2021/04/04 09:52:32;;;;;;;11.07;3.42;;;;;;;8.89;46.35;99612.16;5054888;28;20425;-79
2021/04/04 09:55:01;;;;;;;6.55;3.13;;;;;;;8.85;45.88;99611.63;5065545;28;20484;-79
2021/04/04 09:57:28;;;;;;;5.70;3.05;;;;;;;9.06;44.88;99615.75;5093793;28;20048;-80
2021/04/04 09:59:55;;;;;;;9.70;3.17;;;;;;;9.07;45.13;99608.50;5090557;28;20378;-80
2021/04/04 10:02:32;;;;;;;9.32;2.63;;;;;;;9.25;43.30;99613.81;5092691;28;20051;-79
2021/04/04 10:04:59;;;;;;;8.05;2.92;;;;;;;9.13;43.11;99621.41;5088727;28;20052;-80
2021/04/04 10:07:29;;;;;;;7.75;2.70;;;;;;;9.08;42.83;99591.19;5075136;28;20048;-80
2021/04/04 10:09:58;;;;;;;10.85;2.95;;;;;;;9.37;43.52;99591.59;5072849;28;20052;-79
2021/04/04 10:12:25;;;;;;;8.50;2.60;;;;;;;9.68;43.37;99587.41;5078285;28;20049;-79
2021/04/04 10:15:03;;;;;;;7.50;2.22;;;;;;;9.65;41.75;99595.88;5072608;28;20048;-79
2021/04/04 10:17:29;;;;;;;12.90;2.28;;;;;;;9.63;39.54;99587.06;5067678;28;20056;-79
2021/04/04 10:19:57;;;;;;;4.65;2.38;;;;;;;9.52;39.92;99597.22;5053010;28;20055;-79
2021/04/04 10:22:23;;;;;;;3.35;1.98;;;;;;;9.55;39.72;99587.91;5057926;28;20512;-79
2021/04/04 10:24:53;;;;;;;5.35;2.45;;;;;;;9.82;39.87;99586.75;5071757;28;20052;-79
2021/04/04 10:27:26;;;;;;;3.20;1.90;;;;;;;9.72;39.94;99576.03;5091270;28;20048;-79
2021/04/04 10:30:12;;;;;;;8.40;2.47;;;;;;;9.86;40.53;99566.38;5092948;28;20048;-79
2021/04/04 10:32:38;;;;;;;6.25;2.50;;;;;;;10.04;39.25;99571.63;5073768;28;20059;-79
2021/04/04 10:35:07;;;;;;;6.80;2.42;;;;;;;10.22;38.38;99581.44;5072309;28;20048;-78
2021/04/04 10:37:34;;;;;;;4.43;2.03;;;;;;;10.08;38.01;99567.53;5072918;28;20512;-80
2021/04/04 10:40:03;;;;;;;5.30;1.83;;;;;;;10.22;37.21;99582.31;5081157;28;20067;-79
2021/04/04 10:42:31;;;;;;;3.90;1.87;;;;;;;10.62;37.08;99566.91;5093200;28;20055;-79
2021/04/04 10:45:12;;;;;;;3.75;1.92;;;;;;;10.78;37.18;99570.63;5087996;28;20059;-80
2021/04/04 10:47:39;;;;;;;5.53;1.92;;;;;;;10.90;37.16;99571.06;5072268;28;20052;-79
2021/04/04 10:50:09;;;;;;;9.05;1.90;;;;;;;10.85;37.11;99558.00;5077077;28;20051;-80
2021/04/04 10:52:36;;;;;;;5.35;2.08;;;;;;;11.01;36.21;99561.69;5074733;28;20056;-79
2021/04/04 10:55:06;;;;;;;6.10;2.75;;;;;;;11.33;36.47;99545.13;5072471;28;20045;-79
2021/04/04 10:57:34;;;;;;;;;;;;;;;11.48;35.75;99557.97;5066597;28;20382;-80
2021/04/04 11:00:01;;;;;;;5.28;2.55;;;;;;;11.23;36.08;99554.56;5072232;28;19920;-80
2021/04/04 11:02:28;;;;;;;4.43;2.20;;;;;;;11.02;38.07;99557.91;5072051;28;20056;-80
2021/04/04 11:04:57;;;;;;;5.10;2.15;;;;;;;10.58;38.07;99535.69;5071496;28;20481;-80
2021/04/04 11:07:24;;;;;;;9.20;2.30;;;;;;;10.47;37.35;99557.81;5072835;28;20048;-80
2021/04/04 11:09:50;;;;;;;2.53;1.83;;;;;;;10.78;37.37;99551.59;5052405;28;20484;-79
2021/04/04 11:12:19;;;;;;;3.97;2.00;;;;;;;10.82;36.14;99530.31;5063876;28;20053;-80
2021/04/04 11:14:52;;;;;;;6.65;2.33;;;;;;;10.90;37.28;99542.00;5067530;28;20056;-79
2021/04/04 11:17:20;;;;;;;7.93;2.30;;;;;;;10.82;37.12;99535.75;5072357;28;20432;-80
2021/04/04 11:19:56;;;;;;;6.97;2.17;;;;;;;11.27;36.07;99542.28;5070409;28;20270;-79
2021/04/04 11:22:26;;;;;;;5.65;2.20;;;;;;;11.77;35.07;99530.00;5086967;28;20047;-80
2021/04/04 11:25:00;;;;;;;7.25;2.33;;;;;;;11.60;35.85;99528.44;5081147;28;20055;-80
2021/04/04 11:27:40;;;;;;;11.82;2.13;;;;;;;11.88;35.06;99531.44;5089283;28;20880;-80
2021/04/04 11:30:13;;;;;;;5.70;2.30;;;;;;;11.98;34.31;99526.63;5063233;28;20044;-80
2021/04/04 11:32:41;;;;;;;5.57;2.00;;;;;;;11.81;34.50;99522.31;5052615;28;20052;-80
2021/04/04 11:35:08;;;;;;;4.38;2.05;;;;;;;11.89;34.10;99521.38;5088852;28;20056;-80
2021/04/04 11:38:06;;;;;;;4.45;2.60;;;;;;;11.93;33.50;99514.56;5088432;28;20059;-80
2021/04/04 11:40:38;;;;;;;3.65;1.90;;;;;;;12.41;34.09;99525.97;5069208;28;20492;-80
2021/04/04 11:43:26;;;;;;;4.18;2.28;;;;;;;12.54;33.68;99503.50;5071585;28;20055;-79
2021/04/04 11:46:25;;;;;;;4.18;2.28;;;;;;;12.46;34.17;99506.34;5070041;28;20494;-81
2021/04/04 11:48:59;;;;;;;7.97;2.67;;;;;;;12.56;35.48;99521.38;5069648;28;20098;-79
2021/04/04 11:51:30;;;;;;;4.00;2.00;;;;;;;12.33;35.55;99506.97;5071779;28;20036;-79
2021/04/04 11:53:57;;;;;;;5.80;2.40;;;;;;;12.27;34.43;99505.00;5070467;28;20072;-79
2021/04/04 11:56:48;;;;;;;6.72;2.95;;;;;;;11.75;35.13;99499.38;5080630;28;20052;-79
2021/04/04 11:59:15;;;;;;;6.97;2.70;;;;;;;11.55;35.95;99492.72;5071794;28;20049;-79
2021/04/04 12:01:41;;;;;;;4.68;2.40;;;;;;;11.33;36.25;99487.97;5078516;28;20047;-78
2021/04/04 12:04:20;;;;;;;8.82;2.33;;;;;;;11.50;37.11;99493.28;5057047;28;20053;-79
2021/04/04 12:06:47;;;;;;;10.02;2.33;;;;;;;11.92;35.77;99480.97;5058709;28;20068;-79
2021/04/04 12:09:14;;;;;;;7.28;2.20;;;;;;;12.40;35.49;99491.56;5059490;28;20063;-79
2021/04/04 12:11:41;;;;;;;11.00;2.25;;;;;;;12.62;34.65;99470.69;5052442;28;20379;-79
2021/04/04 12:14:07;;;;;;;5.53;2.65;;;;;;;12.55;33.68;99478.75;5072614;28;20071;-79